Nearby METAR Reports

 

KMTN - Baltimore/Martin, Maryland, USA
Distance from station: SSE 8mi, 13km
Updated: Thu, 24-Jul-2014 2:18am EDT
Partly cloudy
Partly cloudy
 Wind from WNW
Wind: WNW 3 mph , 6 km/h
Temperature: 72°F , 22°C
Dew Point: 72°F , 22°C
Humidity: 100%
Barometer: 29.86 inHg , 1011.2 hPa
Clouds: Partly cloudy
Visibility: 10 miles , 16 km
Cloud details: Partly cloudy 6000 ft
2014/07/24 06:18 KMTN 240618Z AUTO 29003KT 10SM SCT060 22/22 A2986 RMK AO2
KDMH - Baltimore/Dwntwn, Maryland, USA
Distance from station: SW 12mi, 19km
Updated: Thu, 24-Jul-2014 1:54am EDT

 
Temperature: 75°F , 24°C
Dew Point: 72°F , 22°C
Humidity: 89%
Barometer: 29.85 inHg , 1010.8 hPa
2014/07/24 05:54 KDMH 240554Z AUTO 24/22 A2985 RMK AO1 SLP108 60020 T02440217 10256 20239 58002
 
KBWI - Balto/Wash Intl, Maryland, USA
Distance from station: SSW 20mi, 33km
Updated: Thu, 24-Jul-2014 1:54am EDT
Mostly cloudy
Mostly cloudy
 Wind from calm
Wind: Calm
Temperature: 73°F , 23°C
Dew Point: 72°F , 22°C
Humidity: 94%
Barometer: 29.85 inHg , 1010.8 hPa
Clouds: Mostly cloudy
Visibility: 7 miles , 11 km
Cloud details: Few Clouds 20000 ft
Mostly cloudy 23000 ft
2014/07/24 05:54 KBWI 240554Z 00000KT 7SM FEW200 BKN230 23/22 A2985 RMK AO2 SLP105 60012 T02280222 10278 20222 58000
KDMW - Carroll Cnty, Maryland, USA
Distance from station: WNW 30mi, 48km
Updated: Thu, 24-Jul-2014 2:15am EDT
Partly cloudy
Partly cloudy
 Wind from NNW
Wind: NNW 3 mph , 6 km/h
Temperature: 72°F , 22°C
Dew Point: 70°F , 21°C
Humidity: 94%
Barometer: 29.89 inHg , 1012.2 hPa
Clouds: Partly cloudy
Visibility: 10 miles , 16 km
Cloud details: Partly cloudy 8500 ft
2014/07/24 06:15 KDMW 240615Z AUTO 33003KT 10SM SCT085 22/21 A2989 RMK AO2 LTG DSNT E
 
KNAK - Annapolis/Naval, Maryland, USA
Distance from station: S 30mi, 48km
Updated: Thu, 24-Jul-2014 1:54am EDT
Clear
Clear
 Wind from NW
Wind: NW 3 mph , 6 km/h
Temperature: 77°F , 25°C
Dew Point: 72°F , 22°C
Humidity: 83%
Barometer: 29.84 inHg , 1010.5 hPa
Clouds: Clear
Visibility: 9 miles , 14 km
2014/07/24 05:54 KNAK 240554Z AUTO 32003KT 9SM CLR 25/22 A2984 RMK AO2 SLP107 60000 T02500222 10283 20244 58001
KW29 - Stevensville, Maryland, USA
Distance from station: SSE 31mi, 50km
Updated: Thu, 24-Jul-2014 2:17am EDT

 Wind from calm
Wind: Calm
Temperature: 73°F , 23°C
Dew Point: 72°F , 22°C
Humidity: 94%
Barometer: 29.84 inHg , 1010.5 hPa
Visibility: 10 miles , 16 km
2014/07/24 06:17 KW29 240617Z AUTO 00000KT 10SM 23/22 A2984 RMK AO1
 
KCGS - College Park, Maryland, USA
Distance from station: SW 38mi, 61km
Updated: Thu, 24-Jul-2014 2:15am EDT
Clear
Clear
 Wind from calm
Wind: Calm
Temperature: 75°F , 24°C
Dew Point: 72°F , 22°C
Humidity: 89%
Barometer: 29.85 inHg , 1010.8 hPa
Clouds: Clear
Visibility: 10 miles , 16 km
2014/07/24 06:15 KCGS 240615Z AUTO 00000KT 10SM CLR 24/22 A2985 RMK AO1
KGAI - Gaithersburg, Maryland, USA
Distance from station: WSW 40mi, 65km
Updated: Thu, 24-Jul-2014 2:15am EDT
Clear
Clear
 Wind from calm
Wind: Calm
Temperature: 70°F , 21°C
Dew Point: 68°F , 20°C
Humidity: 94%
Barometer: 29.91 inHg , 1012.9 hPa
Clouds: Clear
Visibility: 4 miles , 6 km
2014/07/24 06:15 KGAI 240615Z AUTO 00000KT 4SM CLR 21/20 A2991 RMK AO1
 
KTHV - York, Pennsylvania, USA
Distance from station: NNW 40mi, 65km
Updated: Thu, 24-Jul-2014 1:53am EDT
Clear
Clear
 Wind from calm
Wind: Calm
Temperature: 70°F , 21°C
Dew Point: 68°F , 20°C
Humidity: 94%
Barometer: 29.88 inHg , 1011.9 hPa
Clouds: Clear
Visibility: 7 miles , 11 km
2014/07/24 05:53 KTHV 240553Z AUTO 00000KT 7SM CLR 21/20 A2988 RMK AO2 SLP114 T02110200 10228 20206 50003
KFDK - Frederick, Maryland, USA
Distance from station: W 47mi, 75km
Updated: Thu, 24-Jul-2014 2:15am EDT
Mist, Partly cloudy
Mist, Partly cloudy
 Wind from calm
Wind: Calm
Temperature: 70°F , 21°C
Dew Point: 70°F , 21°C
Humidity: 100%
Barometer: 29.91 inHg , 1012.9 hPa
Summary: Mist
Clouds: Partly cloudy
Visibility: 4 miles , 6 km
Cloud details: Partly cloudy 11000 ft
2014/07/24 06:15 KFDK 240615Z AUTO 00000KT 4SM BR SCT110 21/21 A2991 RMK AO2 LTG DSNT E
 
KESN - Easton/Newnam, Maryland, USA
Distance from station: SSE 48mi, 78km
Updated: Thu, 24-Jul-2014 2:29am EDT
Clear
Clear
 Wind from calm
Wind: Calm
Temperature: 73°F , 23°C
Dew Point: 73°F , 23°C
Humidity: 100%
Barometer: 29.87 inHg , 1011.5 hPa
Clouds: Clear
Visibility: 7 miles , 11 km
2014/07/24 06:29 KESN 240629Z AUTO 00000KT 7SM CLR 23/23 A2987 RMK AO2 T02300230
KDCA - Washington/Natl, Washington D.c., USA
Distance from station: SW 49mi, 79km
Updated: Thu, 24-Jul-2014 1:52am EDT
Mostly cloudy
Mostly cloudy
 Wind from NNW
Wind: NNW 7 mph , 11 km/h
Temperature: 79°F , 26°C
Dew Point: 70°F , 21°C
Humidity: 74%
Barometer: 29.87 inHg , 1011.5 hPa
Clouds: Mostly cloudy
Visibility: 10 miles , 16 km
Cloud details: Few Clouds 9500 ft
Mostly cloudy 21000 ft
2014/07/24 05:52 KDCA 240552Z 34006KT 10SM FEW095 BKN210 26/21 A2987 RMK AO2 SLP113 60000 T02610206 10322 20261 53001
 
KLNS - Lancaster, Pennsylvania, USA
Distance from station: N 49mi, 79km
Updated: Thu, 24-Jul-2014 1:53am EDT
Mist, Overcast
Mist, Overcast
 Wind from NW
Wind: NW 3 mph , 6 km/h
Temperature: 72°F , 22°C
Dew Point: 70°F , 21°C
Humidity: 94%
Barometer: 29.87 inHg , 1011.5 hPa
Summary: Mist
Clouds: Overcast
Visibility: 3 miles , 5 km
Cloud details: Partly cloudy 1700 ft
Partly cloudy 2400 ft
Overcast 3100 ft
2014/07/24 05:53 KLNS 240553Z AUTO 31003KT 3SM BR SCT017 SCT024 OVC031 22/21 A2987 RMK AO2 SLP112 60003 T02170206 10228 20206 50005 $
KILG - Wilmington, Delaware, USA
Distance from station: ENE 50mi, 81km
Updated: Thu, 24-Jul-2014 1:51am EDT
Partly cloudy
Partly cloudy
 Wind from calm
Wind: Calm
Temperature: 72°F , 22°C
Dew Point: 70°F , 21°C
Humidity: 94%
Barometer: 29.86 inHg , 1011.2 hPa
Clouds: Partly cloudy
Visibility: 10 miles , 16 km
Cloud details: Partly cloudy 3700 ft
2014/07/24 05:51 KILG 240551Z 00000KT 10SM SCT037 22/21 A2986 RMK AO2 SLP110 60015 T02220211 10289 20217 55002